createdAt,value
2023-01-12T00:01:59.029Z,8.32
2023-01-12T00:04:26.755Z,8.28
2023-01-12T00:06:54.780Z,8.19
2023-01-12T00:09:22.429Z,8.21
2023-01-12T00:11:50.102Z,8.18
2023-01-12T00:14:18.134Z,8.18
2023-01-12T00:16:47.024Z,8.21
2023-01-12T00:19:16.488Z,8.14
2023-01-12T00:21:58.211Z,8.10
2023-01-12T00:24:28.035Z,8.09
2023-01-12T00:26:57.358Z,8.11
2023-01-12T00:29:25.994Z,8.15
2023-01-12T00:31:55.786Z,8.12
2023-01-12T00:34:24.806Z,8.09
2023-01-12T00:36:52.665Z,8.07
2023-01-12T00:39:21.099Z,8.07
2023-01-12T00:42:06.395Z,8.10
2023-01-12T00:44:51.608Z,8.11
2023-01-12T00:47:20.799Z,8.12
2023-01-12T00:49:48.547Z,8.11
2023-01-12T00:52:29.469Z,8.20
2023-01-12T00:54:59.172Z,8.22
2023-01-12T00:57:27.932Z,8.23
2023-01-12T00:59:57.785Z,8.25
2023-01-12T01:02:26.759Z,8.23
2023-01-12T01:04:54.362Z,8.26
2023-01-12T01:07:22.362Z,8.27
2023-01-12T01:09:50.561Z,8.29
2023-01-12T01:12:18.581Z,8.30
2023-01-12T01:14:47.339Z,8.32
2023-01-12T01:17:14.915Z,8.34
2023-01-12T01:19:44.007Z,8.37
2023-01-12T01:22:12.409Z,8.35
2023-01-12T01:24:40.124Z,8.39
2023-01-12T01:27:07.751Z,8.41
2023-01-12T01:29:35.396Z,8.45
2023-01-12T01:32:02.968Z,8.44
2023-01-12T01:34:30.737Z,8.47
2023-01-12T01:36:59.765Z,8.47
2023-01-12T01:39:27.353Z,8.46
2023-01-12T01:41:54.978Z,8.48
2023-01-12T01:44:50.880Z,8.55
2023-01-12T01:47:26.837Z,8.56
2023-01-12T01:49:57.480Z,8.56
2023-01-12T01:52:30.135Z,8.59
2023-01-12T01:55:03.326Z,8.69
2023-01-12T01:57:36.938Z,8.72
2023-01-12T02:00:09.073Z,8.69
2023-01-12T02:02:37.908Z,8.66
2023-01-12T02:05:06.495Z,8.69
2023-01-12T02:07:36.700Z,8.62
2023-01-12T02:10:04.963Z,8.65
2023-01-12T02:12:51.424Z,8.69
2023-01-12T02:15:37.220Z,8.71
2023-01-12T02:18:15.607Z,8.69
2023-01-12T02:21:04.039Z,8.64
2023-01-12T02:23:55.815Z,8.70
2023-01-12T02:26:55.483Z,8.61
2023-01-12T02:29:47.540Z,8.60
2023-01-12T02:32:25.999Z,8.63
2023-01-12T02:35:07.179Z,8.65
2023-01-12T02:37:39.616Z,8.64
2023-01-12T02:40:11.274Z,8.61
2023-01-12T02:42:44.945Z,8.61
2023-01-12T02:45:29.715Z,8.63
2023-01-12T02:48:06.354Z,8.63
2023-01-12T02:50:44.210Z,8.60
2023-01-12T02:53:18.808Z,8.57
2023-01-12T02:55:48.472Z,8.57
2023-01-12T02:58:20.097Z,8.58
2023-01-12T03:00:51.295Z,8.63
2023-01-12T03:03:20.636Z,8.65
2023-01-12T03:05:48.607Z,8.66
2023-01-12T03:08:18.653Z,8.66
2023-01-12T03:11:11.837Z,8.68
2023-01-12T03:13:45.158Z,8.70
2023-01-12T03:16:16.307Z,8.75
2023-01-12T03:18:50.934Z,8.71
2023-01-12T03:21:26.113Z,8.71
2023-01-12T03:24:00.535Z,8.67
2023-01-12T03:26:31.540Z,8.71
2023-01-12T03:29:04.856Z,8.66
2023-01-12T03:31:33.061Z,8.58
2023-01-12T03:34:02.566Z,8.59
2023-01-12T03:36:42.009Z,8.65
2023-01-12T03:39:17.812Z,8.64
2023-01-12T03:41:57.063Z,8.63
2023-01-12T03:44:30.388Z,8.67
2023-01-12T03:47:02.096Z,8.67
2023-01-12T03:49:35.556Z,8.62
2023-01-12T03:52:05.887Z,8.64
2023-01-12T03:54:35.458Z,8.69
2023-01-12T03:57:04.474Z,8.66
2023-01-12T03:59:33.547Z,8.66
2023-01-12T04:02:01.272Z,8.64
2023-01-12T04:04:28.966Z,8.64
2023-01-12T04:07:00.999Z,8.62
2023-01-12T04:09:29.246Z,8.61
2023-01-12T04:12:11.693Z,8.63
2023-01-12T04:14:39.930Z,8.54
2023-01-12T04:17:10.048Z,8.54
2023-01-12T04:19:38.301Z,8.48
2023-01-12T04:22:25.174Z,8.52
2023-01-12T04:24:53.277Z,8.55
2023-01-12T04:27:20.928Z,8.50
2023-01-12T04:29:48.559Z,8.45
2023-01-12T04:32:16.322Z,8.45
2023-01-12T04:34:43.920Z,8.46
2023-01-12T04:37:12.873Z,8.47
2023-01-12T04:39:40.503Z,8.52
2023-01-12T04:42:28.881Z,8.57
2023-01-12T04:44:56.520Z,8.56
2023-01-12T04:47:24.571Z,8.49
2023-01-12T04:49:52.175Z,8.53
2023-01-12T04:52:21.105Z,8.49
2023-01-12T04:54:48.676Z,8.45
2023-01-12T04:57:16.234Z,8.48
2023-01-12T04:59:45.003Z,8.54
2023-01-12T05:02:12.682Z,8.50
2023-01-12T05:04:40.351Z,8.50
2023-01-12T05:07:07.932Z,8.51
2023-01-12T05:09:54.605Z,8.39
2023-01-12T05:12:22.173Z,8.44
2023-01-12T05:14:50.084Z,8.42
2023-01-12T05:17:17.708Z,8.47
2023-01-12T05:19:45.352Z,8.49
2023-01-12T05:22:12.910Z,8.57
2023-01-12T05:24:41.893Z,8.59
2023-01-12T05:27:09.597Z,8.66
2023-01-12T05:29:37.257Z,8.63
2023-01-12T05:32:05.277Z,8.62
2023-01-12T05:34:32.880Z,8.67
2023-01-12T05:37:00.508Z,8.53
2023-01-12T05:39:29.293Z,8.62
2023-01-12T05:42:16.104Z,8.56
2023-01-12T05:44:46.088Z,8.43
2023-01-12T05:47:15.138Z,8.46
2023-01-12T05:49:42.809Z,8.48
2023-01-12T05:52:10.440Z,8.48
2023-01-12T05:54:38.047Z,8.40
2023-01-12T05:57:07.001Z,8.40
2023-01-12T05:59:34.944Z,8.43
2023-01-12T06:02:05.044Z,8.41
2023-01-12T06:04:32.679Z,8.39
2023-01-12T06:07:00.289Z,8.39
2023-01-12T06:09:27.977Z,8.46
2023-01-12T06:12:13.283Z,8.44
2023-01-12T06:14:42.295Z,8.56
2023-01-12T06:17:10.367Z,8.59
2023-01-12T06:19:38.964Z,8.55
2023-01-12T06:22:08.043Z,8.49
2023-01-12T06:24:35.877Z,8.57
2023-01-12T06:27:03.597Z,8.57
2023-01-12T06:29:31.299Z,8.54
2023-01-12T06:32:00.268Z,8.53
2023-01-12T06:34:27.852Z,8.56
2023-01-12T06:36:55.478Z,8.51
2023-01-12T06:39:23.065Z,8.49
2023-01-12T06:42:08.296Z,8.53
2023-01-12T06:44:35.895Z,8.56
2023-01-12T06:47:05.181Z,8.52
2023-01-12T06:49:32.926Z,8.47
2023-01-12T06:52:00.561Z,8.46
2023-01-12T06:54:28.270Z,8.45
2023-01-12T06:56:57.927Z,8.56
2023-01-12T06:59:25.631Z,8.56
2023-01-12T07:01:53.343Z,8.55
2023-01-12T07:04:22.455Z,8.55
2023-01-12T07:06:50.217Z,8.63
2023-01-12T07:09:17.937Z,8.57
2023-01-12T07:11:45.527Z,8.64
2023-01-12T07:14:13.130Z,8.73
2023-01-12T07:16:41.545Z,8.80
2023-01-12T07:19:09.167Z,8.71
2023-01-12T07:21:38.166Z,8.62
2023-01-12T07:24:06.134Z,8.61
2023-01-12T07:26:34.194Z,8.63
2023-01-12T07:29:01.794Z,8.64
2023-01-12T07:31:29.595Z,8.60
2023-01-12T07:33:57.435Z,8.54
2023-01-12T07:36:26.317Z,8.50
2023-01-12T07:38:55.280Z,8.51
2023-01-12T07:41:40.583Z,8.49
2023-01-12T07:44:08.423Z,8.53
2023-01-12T07:46:36.189Z,8.50
2023-01-12T07:49:03.936Z,8.41
2023-01-12T07:51:31.806Z,8.38
2023-01-12T07:54:02.170Z,8.38
2023-01-12T07:56:29.803Z,8.40
2023-01-12T07:58:57.563Z,8.36
2023-01-12T08:01:25.734Z,8.32
2023-01-12T08:03:53.608Z,8.29
2023-01-12T08:06:21.324Z,8.28
2023-01-12T08:08:48.927Z,8.27
2023-01-12T08:11:17.913Z,8.34
2023-01-12T08:13:45.604Z,8.34
2023-01-12T08:16:19.422Z,8.37
2023-01-12T08:18:52.130Z,8.28
2023-01-12T08:21:24.676Z,8.36
2023-01-12T08:23:56.453Z,8.29
2023-01-12T08:26:28.177Z,8.33
2023-01-12T08:29:00.149Z,8.32
2023-01-12T08:31:35.279Z,8.26
2023-01-12T08:34:03.095Z,8.20
2023-01-12T08:36:32.215Z,8.21
2023-01-12T08:39:01.361Z,8.16
2023-01-12T08:41:33.089Z,8.29
2023-01-12T08:44:04.797Z,8.26
2023-01-12T08:46:34.933Z,8.26
2023-01-12T08:49:03.483Z,8.27
2023-01-12T08:51:31.505Z,8.26
2023-01-12T08:53:59.194Z,8.26
2023-01-12T08:56:26.755Z,8.25
2023-01-12T08:58:56.521Z,8.27
2023-01-12T09:01:24.264Z,8.31
2023-01-12T09:03:52.147Z,8.32
2023-01-12T09:06:22.102Z,8.28
2023-01-12T09:08:55.427Z,8.31
2023-01-12T09:11:24.148Z,8.33
2023-01-12T09:13:52.051Z,8.33
2023-01-12T09:16:21.435Z,8.34
2023-01-12T09:18:49.505Z,8.40
2023-01-12T09:21:21.371Z,8.38
2023-01-12T09:23:50.182Z,8.40
2023-01-12T09:26:20.170Z,8.34
2023-01-12T09:28:48.511Z,8.38
2023-01-12T09:31:19.122Z,8.39
2023-01-12T09:33:48.423Z,8.40
2023-01-12T09:36:18.474Z,8.46
2023-01-12T09:38:48.772Z,8.49
2023-01-12T09:41:40.274Z,8.49
2023-01-12T09:44:35.613Z,8.54
2023-01-12T09:47:06.214Z,8.60
2023-01-12T09:49:41.409Z,8.60
2023-01-12T09:52:17.350Z,8.57
2023-01-12T09:54:48.613Z,8.54
2023-01-12T09:57:43.737Z,8.55
2023-01-12T10:00:14.114Z,8.54
2023-01-12T10:02:44.790Z,8.57
2023-01-12T10:05:38.543Z,8.56
2023-01-12T10:08:14.124Z,8.54
2023-01-12T10:10:45.537Z,8.50
2023-01-12T10:13:15.345Z,8.56
2023-01-12T10:15:50.117Z,8.59
2023-01-12T10:18:25.224Z,8.59
2023-01-12T10:20:54.951Z,8.53
2023-01-12T10:23:25.085Z,8.59
2023-01-12T10:26:00.493Z,8.64
2023-01-12T10:28:31.035Z,8.57
2023-01-12T10:30:59.246Z,8.59
2023-01-12T10:33:28.476Z,8.58
2023-01-12T10:36:01.585Z,8.58
2023-01-12T10:38:31.360Z,8.60
2023-01-12T10:41:14.574Z,8.59
2023-01-12T10:43:43.459Z,8.64
2023-01-12T10:46:14.066Z,8.68
2023-01-12T10:48:43.740Z,8.72
2023-01-12T10:51:27.443Z,8.78
2023-01-12T10:54:01.251Z,8.83
2023-01-12T10:56:33.411Z,8.89
2023-01-12T10:59:03.884Z,8.93
2023-01-12T11:01:48.910Z,9.00
2023-01-12T11:04:21.862Z,9.06
2023-01-12T11:07:05.435Z,9.16
2023-01-12T11:09:33.260Z,9.24
2023-01-12T11:12:03.039Z,9.25
2023-01-12T11:14:33.410Z,9.31
2023-01-12T11:17:26.121Z,9.36
2023-01-12T11:19:56.174Z,9.38
2023-01-12T11:22:28.410Z,9.42
2023-01-12T11:25:01.523Z,9.45
2023-01-12T11:27:33.866Z,9.51
2023-01-12T11:30:07.359Z,9.52
2023-01-12T11:32:41.904Z,9.57
2023-01-12T11:35:27.500Z,9.58
2023-01-12T11:38:00.888Z,9.59
2023-01-12T11:40:33.522Z,9.59
2023-01-12T11:43:29.816Z,9.62
2023-01-12T11:46:04.555Z,9.64
2023-01-12T11:48:39.786Z,9.64
2023-01-12T11:51:08.636Z,9.68
2023-01-12T11:53:38.283Z,9.69
2023-01-12T11:56:22.449Z,9.71
2023-01-12T11:58:57.652Z,9.76
2023-01-12T12:01:35.516Z,9.81
2023-01-12T12:04:26.544Z,9.86
2023-01-12T12:07:11.463Z,9.88
2023-01-12T12:09:55.130Z,9.91
2023-01-12T12:12:31.533Z,9.93
2023-01-12T12:15:15.360Z,9.97
2023-01-12T12:17:55.715Z,9.99
2023-01-12T12:20:33.044Z,10.00
2023-01-12T12:23:14.717Z,10.03
2023-01-12T12:25:53.653Z,10.08
2023-01-12T12:28:37.539Z,10.11
2023-01-12T12:31:16.773Z,10.15
2023-01-12T12:33:59.951Z,10.17
2023-01-12T12:36:34.100Z,10.14
2023-01-12T12:39:25.611Z,10.17
2023-01-12T12:42:19.411Z,10.23
2023-01-12T12:45:13.327Z,10.23
2023-01-12T12:47:52.208Z,10.22
2023-01-12T12:50:24.198Z,10.26
2023-01-12T12:53:03.599Z,10.27
2023-01-12T12:55:32.150Z,10.29
2023-01-12T12:58:03.769Z,10.28
2023-01-12T13:00:36.644Z,10.33
2023-01-12T13:03:04.673Z,10.37
2023-01-12T13:05:43.178Z,10.37
2023-01-12T13:08:23.701Z,10.36
2023-01-12T13:10:53.463Z,10.37
2023-01-12T13:13:30.177Z,10.37
2023-01-12T13:16:44.793Z,10.36
2023-01-12T13:19:32.673Z,10.36
2023-01-12T13:22:17.934Z,10.39
2023-01-12T13:24:45.981Z,10.40
2023-01-12T13:27:48.776Z,10.42
2023-01-12T13:30:23.605Z,10.41
2023-01-12T13:32:59.175Z,10.44
2023-01-12T13:36:05.535Z,10.46
2023-01-12T13:39:08.351Z,10.44
2023-01-12T13:41:55.384Z,10.46
2023-01-12T13:44:28.560Z,10.45
2023-01-12T13:47:07.949Z,10.52
2023-01-12T13:49:43.925Z,10.50
2023-01-12T13:52:22.959Z,10.49
2023-01-12T13:54:54.248Z,10.45
2023-01-12T13:57:23.512Z,10.48
2023-01-12T13:59:59.228Z,10.48
2023-01-12T14:02:30.970Z,10.49
2023-01-12T14:05:16.118Z,10.50
2023-01-12T14:07:53.693Z,10.52
2023-01-12T14:10:35.474Z,10.52
2023-01-12T14:13:34.730Z,10.47
2023-01-12T14:16:23.597Z,10.50
2023-01-12T14:18:51.645Z,10.50
2023-01-12T14:21:23.970Z,10.50
2023-01-12T14:23:51.881Z,10.51
2023-01-12T14:26:23.930Z,10.50
2023-01-12T14:28:53.271Z,10.49
2023-01-12T14:31:27.620Z,10.46
2023-01-12T14:33:57.435Z,10.47
2023-01-12T14:36:28.984Z,10.49
2023-01-12T14:38:59.489Z,10.49
2023-01-12T14:41:49.039Z,10.50
2023-01-12T14:44:37.753Z,10.48
2023-01-12T14:47:05.534Z,10.52
2023-01-12T14:49:34.809Z,10.51
2023-01-12T14:52:04.903Z,10.51
2023-01-12T14:54:34.090Z,10.50
2023-01-12T14:57:07.323Z,10.56
2023-01-12T14:59:39.376Z,10.53
2023-01-12T15:02:32.444Z,10.53
2023-01-12T15:05:02.722Z,10.54
2023-01-12T15:07:34.558Z,10.55
2023-01-12T15:10:05.154Z,10.52
2023-01-12T15:12:53.821Z,10.54
2023-01-12T15:15:23.674Z,10.55
2023-01-12T15:18:10.801Z,10.55
2023-01-12T15:20:58.990Z,10.56
2023-01-12T15:23:46.891Z,10.58
2023-01-12T15:26:14.615Z,10.56
2023-01-12T15:28:44.680Z,10.55
2023-01-12T15:31:20.221Z,10.58
2023-01-12T15:33:48.245Z,10.58
2023-01-12T15:36:16.469Z,10.59
2023-01-12T15:38:44.087Z,10.60
2023-01-12T15:41:17.067Z,10.62
2023-01-12T15:43:46.013Z,10.64
2023-01-12T15:46:19.339Z,10.66
2023-01-12T15:48:46.945Z,10.65
2023-01-12T15:51:16.074Z,10.61
2023-01-12T15:53:43.667Z,10.63
2023-01-12T15:56:15.158Z,10.66
2023-01-12T15:58:42.905Z,10.68
2023-01-12T16:01:16.947Z,10.69
2023-01-12T16:04:12.284Z,10.67
2023-01-12T16:06:37.309Z,10.67
2023-01-12T16:09:04.940Z,10.65
2023-01-12T16:11:32.702Z,10.67
2023-01-12T16:14:00.579Z,10.69
2023-01-12T16:16:29.659Z,10.65
2023-01-12T16:18:58.606Z,10.65
2023-01-12T16:21:28.514Z,10.67
2023-01-12T16:23:57.765Z,10.67
2023-01-12T16:26:26.322Z,10.66
2023-01-12T16:28:53.932Z,10.65
2023-01-12T16:31:22.067Z,10.65
2023-01-12T16:33:51.183Z,10.63
2023-01-12T16:36:18.996Z,10.61
2023-01-12T16:38:46.654Z,10.64
2023-01-12T16:41:18.763Z,10.63
2023-01-12T16:43:47.393Z,10.59
2023-01-12T16:46:16.282Z,10.54
2023-01-12T16:48:44.671Z,10.54
2023-01-12T16:51:14.731Z,10.56
2023-01-12T16:53:42.990Z,10.54
2023-01-12T16:56:12.159Z,10.52
2023-01-12T16:58:42.430Z,10.51
2023-01-12T17:01:12.112Z,10.50
2023-01-12T17:03:41.434Z,10.54
2023-01-12T17:06:10.935Z,10.52
2023-01-12T17:08:40.653Z,10.50
2023-01-12T17:11:09.402Z,10.56
2023-01-12T17:13:37.532Z,10.56
2023-01-12T17:16:07.929Z,10.54
2023-01-12T17:18:36.640Z,10.50
2023-01-12T17:21:06.626Z,10.46
2023-01-12T17:23:34.815Z,10.49
2023-01-12T17:26:04.864Z,10.50
2023-01-12T17:28:35.116Z,10.48
2023-01-12T17:31:08.784Z,10.47
2023-01-12T17:33:37.908Z,10.45
2023-01-12T17:36:07.883Z,10.46
2023-01-12T17:38:37.749Z,10.43
2023-01-12T17:41:10.224Z,10.43
2023-01-12T17:43:39.564Z,10.42
2023-01-12T17:46:08.675Z,10.40
2023-01-12T17:48:36.580Z,10.36
2023-01-12T17:51:11.575Z,10.30
2023-01-12T17:53:39.183Z,10.34
2023-01-12T17:56:09.765Z,10.30
2023-01-12T17:58:37.978Z,10.29
2023-01-12T18:01:11.588Z,10.26
2023-01-12T18:03:39.532Z,10.25
2023-01-12T18:06:12.015Z,10.31
2023-01-12T18:08:46.953Z,10.42
2023-01-12T18:11:16.929Z,10.45
2023-01-12T18:13:45.077Z,10.42
2023-01-12T18:16:15.206Z,10.35
2023-01-12T18:18:44.120Z,10.30
2023-01-12T18:21:14.693Z,10.32
2023-01-12T18:23:43.346Z,10.36
2023-01-12T18:26:14.425Z,10.31
2023-01-12T18:28:44.942Z,10.24
2023-01-12T18:31:16.791Z,10.21
2023-01-12T18:33:46.867Z,10.18
2023-01-12T18:36:21.059Z,10.16
2023-01-12T18:38:51.149Z,10.18
2023-01-12T18:41:37.851Z,10.17
2023-01-12T18:44:08.650Z,10.15
2023-01-12T18:46:59.212Z,10.13
2023-01-12T18:49:30.544Z,10.10
2023-01-12T18:52:16.590Z,10.11
2023-01-12T18:54:47.558Z,10.15
2023-01-12T18:57:17.641Z,10.15
2023-01-12T18:59:47.571Z,10.11
2023-01-12T19:02:17.377Z,10.12
2023-01-12T19:05:12.474Z,10.10
2023-01-12T19:08:03.278Z,10.12
2023-01-12T19:10:37.454Z,10.11
2023-01-12T19:13:23.030Z,10.13
2023-01-12T19:16:09.659Z,10.09
2023-01-12T19:18:38.411Z,10.11
2023-01-12T19:21:26.703Z,10.12
2023-01-12T19:24:15.879Z,10.15
2023-01-12T19:27:03.727Z,10.13
2023-01-12T19:29:32.542Z,10.14
2023-01-12T19:32:02.628Z,10.12
2023-01-12T19:34:30.621Z,10.11
2023-01-12T19:36:58.331Z,10.13
2023-01-12T19:39:46.380Z,10.12
2023-01-12T19:42:32.119Z,10.09
2023-01-12T19:44:59.887Z,10.11
2023-01-12T19:47:29.098Z,10.17
2023-01-12T19:49:56.917Z,10.17
2023-01-12T19:52:24.821Z,10.16
2023-01-12T19:54:52.608Z,10.13
2023-01-12T19:57:20.646Z,10.15
2023-01-12T19:59:48.355Z,10.18
2023-01-12T20:02:16.218Z,10.16
2023-01-12T20:04:45.403Z,10.17
2023-01-12T20:07:13.573Z,10.11
2023-01-12T20:09:41.240Z,10.16
2023-01-12T20:12:09.461Z,10.14
2023-01-12T20:14:37.527Z,10.11
2023-01-12T20:17:05.764Z,10.07
2023-01-12T20:19:34.086Z,10.12
2023-01-12T20:22:03.764Z,10.18
2023-01-12T20:24:31.860Z,10.14
2023-01-12T20:27:00.233Z,10.11
2023-01-12T20:29:28.469Z,10.17
2023-01-12T20:31:56.292Z,10.12
2023-01-12T20:34:24.613Z,10.15
2023-01-12T20:36:52.754Z,10.20
2023-01-12T20:39:24.231Z,10.23
2023-01-12T20:41:52.609Z,10.26
2023-01-12T20:44:21.348Z,10.27
2023-01-12T20:46:49.820Z,10.27
2023-01-12T20:49:17.839Z,10.23
2023-01-12T20:51:46.325Z,10.26
2023-01-12T20:54:15.775Z,10.31
2023-01-12T20:56:45.268Z,10.28
2023-01-12T20:59:13.663Z,10.26
2023-01-12T21:01:41.849Z,10.24
2023-01-12T21:04:09.720Z,10.30
2023-01-12T21:06:37.859Z,10.34
2023-01-12T21:09:05.765Z,10.34
2023-01-12T21:11:33.493Z,10.40
2023-01-12T21:14:02.640Z,10.47
2023-01-12T21:16:33.625Z,10.49
2023-01-12T21:19:02.379Z,10.53
2023-01-12T21:21:30.171Z,10.55
2023-01-12T21:23:57.859Z,10.50
2023-01-12T21:26:25.474Z,10.50
2023-01-12T21:28:53.213Z,10.46
2023-01-12T21:31:23.185Z,10.43
2023-01-12T21:33:50.793Z,10.45
2023-01-12T21:36:19.552Z,10.46
2023-01-12T21:38:50.477Z,10.41
2023-01-12T21:41:18.345Z,10.41
2023-01-12T21:43:49.379Z,10.38
2023-01-12T21:46:17.721Z,10.38
2023-01-12T21:48:47.241Z,10.36
2023-01-12T21:51:16.959Z,10.32
2023-01-12T21:53:44.603Z,10.29
2023-01-12T21:56:13.417Z,10.28
2023-01-12T21:58:40.993Z,10.28
2023-01-12T22:01:10.465Z,10.28
2023-01-12T22:03:39.077Z,10.25
2023-01-12T22:06:09.690Z,10.26
2023-01-12T22:08:38.382Z,10.22
2023-01-12T22:11:07.607Z,10.23
2023-01-12T22:13:36.059Z,10.22
2023-01-12T22:16:05.204Z,10.24
2023-01-12T22:18:34.802Z,10.27
2023-01-12T22:21:03.219Z,10.26
2023-01-12T22:23:32.201Z,10.26
2023-01-12T22:26:02.124Z,10.24
2023-01-12T22:28:29.872Z,10.26
2023-01-12T22:30:58.994Z,10.24
2023-01-12T22:33:26.733Z,10.25
2023-01-12T22:35:54.353Z,10.27
2023-01-12T22:38:21.950Z,10.23
2023-01-12T22:40:50.862Z,10.24
2023-01-12T22:43:27.282Z,10.22
2023-01-12T22:45:57.884Z,10.26
2023-01-12T22:48:26.720Z,10.20
2023-01-12T22:50:55.289Z,10.20
2023-01-12T22:53:24.010Z,10.22
2023-01-12T22:55:53.196Z,10.24
2023-01-12T22:58:20.879Z,10.23
2023-01-12T23:00:48.869Z,10.22
2023-01-12T23:03:16.712Z,10.20
2023-01-12T23:05:47.717Z,10.17
2023-01-12T23:08:17.145Z,10.20
2023-01-12T23:10:45.342Z,10.23
2023-01-12T23:13:20.468Z,10.17
2023-01-12T23:15:50.335Z,10.18
2023-01-12T23:18:20.282Z,10.18
2023-01-12T23:20:49.357Z,10.17
2023-01-12T23:23:18.657Z,10.18
2023-01-12T23:25:47.293Z,10.19
2023-01-12T23:28:17.350Z,10.24
2023-01-12T23:30:45.897Z,10.24
2023-01-12T23:33:13.758Z,10.22
2023-01-12T23:35:43.175Z,10.21
2023-01-12T23:38:16.199Z,10.22
2023-01-12T23:40:44.073Z,10.23
2023-01-12T23:43:11.913Z,10.26
2023-01-12T23:45:41.063Z,10.24
2023-01-12T23:48:09.016Z,10.26
2023-01-12T23:50:36.965Z,10.23
2023-01-12T23:53:04.970Z,10.20
2023-01-12T23:55:32.801Z,10.18
2023-01-12T23:58:00.733Z,10.17
